Airfield :
LOGIN :

Register | Disclaimer

   EN    FR    IT 

 










Legend :    VFR   Marginal VFR   IFR   Intensive IFR   Very Intensive IFR
Visi :
Ceiling :
>= 8 km
>= 3000ft
5 to 8 km
1000 to 3000 ft
1500m to 5 km
500 to 1000 ft
800 to 1500m
200 to 500 ft
< 800m
< 200 ft
Symbols :   Thunderstorms  Fog  Heavy snow  Heavy precipitations  Wind > 20 kt
SIGMETs :     Misc.  Thunderstorms  Icing  Turbulence  Mountain Waves  Volcanic Ashes







- Airport Elevation : 433 ft
- IATA code : CCF
- Download approach charts


LFMK - Carcassonne

CURRENT METAR :
  • 200900Z AUTO 27008KT 9999 FEW009 08/05 Q1025 TEMPO BKN010

EXPIRED METARs :
  • 200830Z AUTO 27008KT 230V300 9999 FEW009 07/05 Q1024 TEMPO BKN010
  • 200800Z AUTO 27010KT 9999 BKN006 06/05 Q1024 BECMG NSC
  • 200730Z AUTO 26008KT 230V300 9999 OVC006 06/05 Q1024 BECMG NSC
  • 200700Z AUTO 26006KT 220V300 9999 OVC008 06/05 Q1024 BECMG NSC
  • 200630Z AUTO 24006KT 9999 BKN008 06/04 Q1024 BECMG NSC

TAF TAF LFMK
Valid from the 20 at 09:00 until the 21 at 09:00 UTC


200800Z 2009/2109 27012KT CAVOK
TEMPO 2009/2012 BKN010
TEMPO 2018/2109 VRB02KT 1200 BR OVC006
PROB40
TEMPO 2021/2108 0200 FG VV///
No reported NOTAMs for that airfield.



MET'MAP, your aeronautical weather chart ! - Copyright ORBIFLY December 2007 - Disclaimer

ORBIFLY MET'MAP TEAM :

Programming & Development : Alexandra Zaïnal
Concept & Development : Baudouin d'Aumeries
Co-Development & Prog : Marc-Olivier Méhu
Technical & hardware support : Manuel Goepfert

Contact : metmap@orbifly.com




SOURCES & CREDITS :

   NOAA